createdAt,value
2019-03-29T00:02:03.610Z,102990.39
2019-03-29T00:04:33.450Z,102997.49
2019-03-29T00:07:04.008Z,102996.91
2019-03-29T00:09:34.094Z,102996.54
2019-03-29T00:12:04.919Z,102985.64
2019-03-29T00:14:34.886Z,102998.52
2019-03-29T00:17:04.714Z,102988.02
2019-03-29T00:19:34.554Z,102988.57
2019-03-29T00:22:05.108Z,102987.22
2019-03-29T00:24:35.130Z,102985.25
2019-03-29T00:27:05.018Z,102988.12
2019-03-29T00:29:34.839Z,102982.11
2019-03-29T00:32:05.929Z,102984.05
2019-03-29T00:34:35.869Z,102975.30
2019-03-29T00:37:05.719Z,102976.59
2019-03-29T00:39:35.560Z,102981.89
2019-03-29T00:42:05.410Z,102972.34
2019-03-29T00:44:35.231Z,102975.87
2019-03-29T00:47:05.074Z,102976.25
2019-03-29T00:49:34.946Z,102972.61
2019-03-29T00:52:04.804Z,102970.50
2019-03-29T00:54:34.646Z,102965.88
2019-03-29T00:57:05.011Z,102958.38
2019-03-29T00:59:35.105Z,102963.64
2019-03-29T01:02:04.990Z,102966.56
2019-03-29T01:04:34.839Z,102962.31
2019-03-29T01:07:04.962Z,102968.28
2019-03-29T01:09:35.148Z,102959.16
2019-03-29T01:12:05.011Z,102961.28
2019-03-29T01:14:34.854Z,102957.56
2019-03-29T01:17:04.648Z,102955.50
2019-03-29T01:19:34.511Z,102950.23
2019-03-29T01:22:05.974Z,102951.63
2019-03-29T01:24:35.857Z,102943.95
2019-03-29T01:27:05.690Z,102952.89
2019-03-29T01:29:35.544Z,102954.72
2019-03-29T01:32:05.351Z,102951.50
2019-03-29T01:34:35.189Z,102945.52
2019-03-29T01:37:05.033Z,102943.48
2019-03-29T01:39:34.861Z,102944.16
2019-03-29T01:42:04.682Z,102945.98
2019-03-29T01:44:34.491Z,102944.07
2019-03-29T01:47:04.375Z,102941.03
2019-03-29T01:49:34.549Z,102940.53
2019-03-29T01:52:04.401Z,102944.23
2019-03-29T01:54:34.276Z,102942.59
2019-03-29T01:57:04.102Z,102943.08
2019-03-29T01:59:33.992Z,102933.81
2019-03-29T02:02:03.825Z,102935.14
2019-03-29T02:04:34.306Z,102936.50
2019-03-29T02:07:04.913Z,102927.58
2019-03-29T02:09:34.770Z,102932.20
2019-03-29T02:12:04.870Z,102927.98
2019-03-29T02:14:34.723Z,102919.46
2019-03-29T02:17:04.580Z,102919.86
2019-03-29T02:19:34.425Z,102918.47
2019-03-29T02:22:04.284Z,102919.68
2019-03-29T02:24:34.161Z,102917.47
2019-03-29T02:27:04.805Z,102918.68
2019-03-29T02:29:34.839Z,102916.02
2019-03-29T02:32:04.683Z,102910.22
2019-03-29T02:34:34.536Z,102916.24
2019-03-29T02:37:04.353Z,102921.20
2019-03-29T02:39:34.201Z,102910.50
2019-03-29T02:42:04.022Z,102913.10
2019-03-29T02:44:34.815Z,102915.56
2019-03-29T02:47:04.886Z,102916.17
2019-03-29T02:49:35.099Z,102915.56
2019-03-29T02:52:05.036Z,102915.48
2019-03-29T02:54:34.887Z,102906.06
2019-03-29T02:57:04.707Z,102907.21
2019-03-29T02:59:34.579Z,102907.14
2019-03-29T03:02:04.542Z,102908.70
2019-03-29T03:04:34.403Z,102911.94
2019-03-29T03:07:04.253Z,102912.92
2019-03-29T03:09:34.111Z,102916.24
2019-03-29T03:12:03.924Z,102910.19
2019-03-29T03:14:33.761Z,102905.67
2019-03-29T03:17:03.596Z,102904.72
2019-03-29T03:19:33.420Z,102897.15
2019-03-29T03:22:03.260Z,102893.88
2019-03-29T03:24:33.149Z,102897.91
2019-03-29T03:27:02.963Z,102896.88
2019-03-29T03:29:32.815Z,102896.70
2019-03-29T03:32:02.619Z,102897.37
2019-03-29T03:34:32.527Z,102899.34
2019-03-29T03:37:02.370Z,102897.25
2019-03-29T03:39:32.772Z,102907.84
2019-03-29T03:42:02.668Z,102908.17
2019-03-29T03:44:32.541Z,102907.27
2019-03-29T03:47:02.357Z,102903.38
2019-03-29T03:49:32.248Z,102906.52
2019-03-29T03:52:02.149Z,102910.80
2019-03-29T03:54:31.984Z,102907.95
2019-03-29T03:57:01.834Z,102898.95
2019-03-29T03:59:32.587Z,102900.16
2019-03-29T04:02:02.409Z,102901.08
2019-03-29T04:04:32.298Z,102904.85
2019-03-29T04:07:02.131Z,102904.91
2019-03-29T04:09:48.426Z,102896.73
2019-03-29T04:12:03.464Z,102900.16
2019-03-29T04:14:33.310Z,102899.79
2019-03-29T04:17:03.164Z,102898.13
2019-03-29T04:19:33.031Z,102890.51
2019-03-29T04:22:02.854Z,102888.80
2019-03-29T04:24:32.724Z,102894.20
2019-03-29T04:27:02.537Z,102892.09
2019-03-29T04:29:32.458Z,102895.53
2019-03-29T04:32:02.295Z,102891.59
2019-03-29T04:34:32.142Z,102890.95
2019-03-29T04:37:01.946Z,102887.11
2019-03-29T04:39:31.838Z,102896.31
2019-03-29T04:42:01.647Z,102893.31
2019-03-29T04:44:31.505Z,102898.63
2019-03-29T04:47:01.396Z,102900.02
2019-03-29T04:49:31.240Z,102902.11
2019-03-29T04:52:01.107Z,102902.11
2019-03-29T04:54:30.930Z,102908.48
2019-03-29T04:57:00.785Z,102902.30
2019-03-29T04:59:30.664Z,102909.47
2019-03-29T05:02:00.514Z,102909.97
2019-03-29T05:04:30.375Z,102909.25
2019-03-29T05:07:00.156Z,102903.36
2019-03-29T05:09:30.002Z,102910.81
2019-03-29T05:11:59.824Z,102909.02
2019-03-29T05:14:29.835Z,102915.48
2019-03-29T05:16:59.704Z,102908.34
2019-03-29T05:19:29.665Z,102915.61
2019-03-29T05:21:59.495Z,102913.73
2019-03-29T05:24:29.384Z,102910.83
2019-03-29T05:26:59.228Z,102907.41
2019-03-29T05:29:29.140Z,102912.88
2019-03-29T05:31:59.039Z,102912.16
2019-03-29T05:34:28.941Z,102908.22
2019-03-29T05:36:58.763Z,102901.88
2019-03-29T05:39:28.622Z,102910.81
2019-03-29T05:41:58.499Z,102906.70
2019-03-29T05:44:28.367Z,102907.59
2019-03-29T05:46:58.216Z,102907.59
2019-03-29T05:49:28.045Z,102900.05
2019-03-29T05:51:57.936Z,102910.45
2019-03-29T05:54:27.811Z,102906.12
2019-03-29T05:56:57.640Z,102902.55
2019-03-29T05:59:27.512Z,102906.05
2019-03-29T06:01:57.356Z,102903.36
2019-03-29T06:04:27.257Z,102905.81
2019-03-29T06:06:57.094Z,102895.66
2019-03-29T06:09:26.917Z,102892.78
2019-03-29T06:11:56.781Z,102890.12
2019-03-29T06:14:26.681Z,102896.27
2019-03-29T06:16:56.483Z,102894.87
2019-03-29T06:19:26.321Z,102894.10
2019-03-29T06:21:56.212Z,102887.43
2019-03-29T06:24:27.033Z,102879.54
2019-03-29T06:26:57.693Z,102886.85
2019-03-29T06:29:28.332Z,102889.86
2019-03-29T06:31:58.925Z,102890.06
2019-03-29T06:34:29.555Z,102888.06
2019-03-29T06:37:00.774Z,102884.73
2019-03-29T06:39:31.382Z,102893.78
2019-03-29T06:42:01.975Z,102889.55
2019-03-29T06:44:32.620Z,102884.61
2019-03-29T06:47:03.240Z,102885.20
2019-03-29T06:49:33.833Z,102884.76
2019-03-29T06:52:04.417Z,102874.25
2019-03-29T06:54:35.057Z,102876.23
2019-03-29T06:57:05.690Z,102875.59
2019-03-29T06:59:36.281Z,102879.74
2019-03-29T07:02:06.945Z,102880.65
2019-03-29T07:04:37.665Z,102877.76
2019-03-29T07:07:08.507Z,102870.41
2019-03-29T07:09:39.115Z,102879.32
2019-03-29T07:12:09.712Z,102871.81
2019-03-29T07:14:40.349Z,102881.16
2019-03-29T07:17:10.948Z,102876.28
2019-03-29T07:19:41.592Z,102876.28
2019-03-29T07:22:12.173Z,102878.61
2019-03-29T07:24:42.854Z,102875.89
2019-03-29T07:27:15.131Z,102872.19
2019-03-29T07:29:45.838Z,102874.56
2019-03-29T07:32:16.465Z,102867.37
2019-03-29T07:34:49.126Z,102866.38
2019-03-29T07:37:19.359Z,102868.72
2019-03-29T07:39:49.972Z,102874.20
2019-03-29T07:42:20.669Z,102862.72
2019-03-29T07:44:51.283Z,102859.68
2019-03-29T07:47:21.939Z,102859.81
2019-03-29T07:49:52.538Z,102862.62
2019-03-29T07:52:23.173Z,102861.03
2019-03-29T07:54:53.855Z,102857.90
2019-03-29T07:57:24.491Z,102854.17
2019-03-29T07:59:55.133Z,102849.73
2019-03-29T08:02:25.788Z,102853.63
2019-03-29T08:04:56.370Z,102845.61
2019-03-29T08:07:28.124Z,102845.61
2019-03-29T08:09:59.364Z,102851.73
2019-03-29T08:12:30.057Z,102847.63
2019-03-29T08:15:00.605Z,102837.72
2019-03-29T08:17:31.207Z,102832.64
2019-03-29T08:20:24.871Z,102842.84
2019-03-29T08:22:45.015Z,102840.41
2019-03-29T08:25:15.635Z,102840.97
2019-03-29T08:27:46.307Z,102832.20
2019-03-29T08:30:16.907Z,102830.98
2019-03-29T08:32:47.541Z,102835.61
2019-03-29T08:35:18.175Z,102835.61
2019-03-29T08:37:48.789Z,102824.95
2019-03-29T08:40:19.636Z,102826.20
2019-03-29T08:42:50.312Z,102827.47
2019-03-29T08:45:20.908Z,102818.88
2019-03-29T08:47:51.567Z,102825.88
2019-03-29T08:50:22.173Z,102827.94
2019-03-29T08:52:52.837Z,102826.84
2019-03-29T08:55:23.467Z,102822.20
2019-03-29T08:57:54.132Z,102809.45
2019-03-29T09:00:34.511Z,102827.74
2019-03-29T09:03:05.306Z,102815.92
2019-03-29T09:05:38.977Z,102817.27
2019-03-29T09:08:08.243Z,102797.87
2019-03-29T09:10:38.954Z,102804.03
2019-03-29T09:13:09.573Z,102804.03
2019-03-29T09:15:40.180Z,102802.31
2019-03-29T09:18:10.816Z,102802.31
2019-03-29T09:20:41.591Z,102798.04
2019-03-29T09:23:12.202Z,102805.17
2019-03-29T09:25:42.852Z,102800.22
2019-03-29T09:28:14.432Z,102801.84
2019-03-29T09:30:45.030Z,102799.98
2019-03-29T09:33:15.654Z,102786.48
2019-03-29T09:35:46.264Z,102788.66
2019-03-29T09:38:17.084Z,102786.06
2019-03-29T09:40:57.695Z,102786.08
2019-03-29T09:43:20.096Z,102775.37
2019-03-29T09:45:50.692Z,102777.98
2019-03-29T09:48:21.330Z,102777.46
2019-03-29T09:50:51.927Z,102785.77
2019-03-29T09:53:22.572Z,102773.30
2019-03-29T09:55:53.614Z,102771.73
2019-03-29T09:58:24.407Z,102778.50
2019-03-29T10:00:55.232Z,102769.23
2019-03-29T10:03:25.869Z,102770.19
2019-03-29T10:05:56.480Z,102769.66
2019-03-29T10:08:27.086Z,102772.88
2019-03-29T10:10:57.755Z,102768.22
2019-03-29T10:13:28.368Z,102764.99
2019-03-29T10:15:58.984Z,102759.38
2019-03-29T10:18:29.681Z,102761.90
2019-03-29T10:21:00.322Z,102755.85
2019-03-29T10:23:30.973Z,102748.25
2019-03-29T10:26:01.628Z,102748.05
2019-03-29T10:28:32.238Z,102748.23
2019-03-29T10:31:02.844Z,102744.10
2019-03-29T10:33:33.449Z,102743.06
2019-03-29T10:36:04.081Z,102740.77
2019-03-29T10:38:34.903Z,102735.59
2019-03-29T10:41:05.727Z,102733.27
2019-03-29T10:43:36.334Z,102730.06
2019-03-29T10:46:07.263Z,102723.61
2019-03-29T10:48:38.176Z,102718.63
2019-03-29T10:51:09.104Z,102707.05
2019-03-29T10:53:40.059Z,102714.52
2019-03-29T10:56:10.983Z,102705.20
2019-03-29T10:58:44.836Z,102700.08
2019-03-29T11:01:14.561Z,102699.17
2019-03-29T11:03:45.421Z,102687.33
2019-03-29T11:06:16.503Z,102687.09
2019-03-29T11:08:47.569Z,102682.38
2019-03-29T11:11:18.412Z,102683.52
2019-03-29T11:13:49.331Z,102679.02
2019-03-29T11:16:20.396Z,102668.59
2019-03-29T11:18:51.357Z,102679.61
2019-03-29T11:21:22.214Z,102671.05
2019-03-29T11:23:53.212Z,102674.86
2019-03-29T11:26:24.090Z,102666.33
2019-03-29T11:28:54.946Z,102663.30
2019-03-29T11:31:25.790Z,102667.84
2019-03-29T11:34:07.009Z,102663.00
2019-03-29T11:36:37.643Z,102662.48
2019-03-29T11:39:27.767Z,102654.36
2019-03-29T11:42:03.325Z,102654.66
2019-03-29T11:44:32.473Z,102648.41
2019-03-29T11:47:03.057Z,102649.70
2019-03-29T11:49:34.635Z,102641.62
2019-03-29T11:52:05.353Z,102641.64
2019-03-29T11:54:35.903Z,102640.41
2019-03-29T11:57:06.501Z,102637.48
2019-03-29T11:59:40.003Z,102636.97
2019-03-29T12:02:09.479Z,102635.95
2019-03-29T12:04:40.061Z,102622.55
2019-03-29T12:07:10.798Z,102623.93
2019-03-29T12:09:41.390Z,102619.02
2019-03-29T12:12:12.035Z,102607.88
2019-03-29T12:14:42.639Z,102609.58
2019-03-29T12:17:13.309Z,102607.70
2019-03-29T12:19:43.877Z,102599.59
2019-03-29T12:22:14.469Z,102593.36
2019-03-29T12:24:45.054Z,102599.53
2019-03-29T12:27:15.657Z,102596.44
2019-03-29T12:29:46.254Z,102602.45
2019-03-29T12:32:16.860Z,102594.39
2019-03-29T12:34:47.491Z,102594.77
2019-03-29T12:37:18.107Z,102583.56
2019-03-29T12:39:48.663Z,102582.21
2019-03-29T12:42:19.311Z,102576.49
2019-03-29T12:44:49.960Z,102579.72
2019-03-29T12:47:20.779Z,102573.56
2019-03-29T12:49:51.317Z,102560.69
2019-03-29T12:52:21.907Z,102552.05
2019-03-29T12:54:52.525Z,102554.83
2019-03-29T12:57:23.158Z,102558.52
2019-03-29T12:59:53.772Z,102547.98
2019-03-29T13:02:24.391Z,102542.27
2019-03-29T13:04:54.989Z,102546.77
2019-03-29T13:07:25.598Z,102535.02
2019-03-29T13:09:56.219Z,102532.16
2019-03-29T13:12:26.833Z,102529.39
2019-03-29T13:14:57.430Z,102525.33
2019-03-29T13:17:28.631Z,102522.55
2019-03-29T13:19:59.291Z,102520.55
2019-03-29T13:22:29.928Z,102514.31
2019-03-29T13:25:00.516Z,102507.69
2019-03-29T13:27:31.113Z,102509.03
2019-03-29T13:30:01.704Z,102504.17
2019-03-29T13:32:33.620Z,102501.48
2019-03-29T13:35:04.884Z,102495.55
2019-03-29T13:37:41.220Z,102500.38
2019-03-29T13:40:11.920Z,102491.47
2019-03-29T13:42:42.559Z,102495.14
2019-03-29T13:45:13.226Z,102483.91
2019-03-29T13:47:43.795Z,102485.08
2019-03-29T13:50:14.431Z,102484.40
2019-03-29T13:52:45.007Z,102477.14
2019-03-29T13:55:15.629Z,102473.10
2019-03-29T13:57:46.196Z,102471.03
2019-03-29T14:00:17.009Z,102462.43
2019-03-29T14:02:47.605Z,102459.08
2019-03-29T14:05:18.163Z,102452.59
2019-03-29T14:07:48.766Z,102448.83
2019-03-29T14:10:19.454Z,102447.48
2019-03-29T14:12:50.072Z,102450.19
2019-03-29T14:15:20.667Z,102441.02
2019-03-29T14:17:51.287Z,102434.57
2019-03-29T14:20:32.806Z,102431.90
2019-03-29T14:23:04.383Z,102427.75
2019-03-29T14:25:34.943Z,102428.34
2019-03-29T14:28:05.882Z,102428.21
2019-03-29T14:30:36.436Z,102425.22
2019-03-29T14:33:07.060Z,102414.61
2019-03-29T14:35:37.626Z,102416.33
2019-03-29T14:38:08.220Z,102418.20
2019-03-29T14:40:38.806Z,102415.61
2019-03-29T14:43:09.435Z,102413.73
2019-03-29T14:45:40.013Z,102412.48
2019-03-29T14:48:10.605Z,102403.71
2019-03-29T14:50:41.196Z,102404.14
2019-03-29T14:53:11.834Z,102404.55
2019-03-29T14:55:42.430Z,102401.17
2019-03-29T14:58:12.980Z,102395.98
2019-03-29T15:00:48.274Z,102401.95
2019-03-29T15:03:16.784Z,102395.46
2019-03-29T15:05:47.387Z,102393.15
2019-03-29T15:08:17.984Z,102398.27
2019-03-29T15:10:48.589Z,102389.14
2019-03-29T15:13:19.183Z,102383.02
2019-03-29T15:15:53.210Z,102380.48
2019-03-29T15:18:22.077Z,102377.05
2019-03-29T15:20:54.181Z,102385.73
2019-03-29T15:23:24.967Z,102376.77
2019-03-29T15:25:55.552Z,102378.47
2019-03-29T15:28:26.132Z,102370.32
2019-03-29T15:30:59.026Z,102372.33
2019-03-29T15:33:29.697Z,102369.72
2019-03-29T15:36:00.340Z,102369.97
2019-03-29T15:38:31.294Z,102361.54
2019-03-29T15:41:01.949Z,102359.36
2019-03-29T15:43:32.538Z,102356.40
2019-03-29T15:46:03.162Z,102355.98
2019-03-29T15:48:33.742Z,102351.00
2019-03-29T15:51:04.336Z,102347.69
2019-03-29T15:53:34.918Z,102343.83
2019-03-29T15:56:05.503Z,102343.23
2019-03-29T15:58:36.114Z,102339.50
2019-03-29T16:01:06.664Z,102348.94
2019-03-29T16:03:37.274Z,102342.16
2019-03-29T16:06:07.843Z,102331.92
2019-03-29T16:08:38.431Z,102332.89
2019-03-29T16:11:09.368Z,102332.71
2019-03-29T16:13:41.325Z,102333.57
2019-03-29T16:16:11.963Z,102331.62
2019-03-29T16:18:42.619Z,102328.09
2019-03-29T16:21:13.187Z,102328.20
2019-03-29T16:23:43.813Z,102324.70
2019-03-29T16:26:14.357Z,102330.59
2019-03-29T16:28:45.057Z,102318.13
2019-03-29T16:31:15.659Z,102322.89
2019-03-29T16:33:46.241Z,102311.50
2019-03-29T16:36:16.811Z,102316.14
2019-03-29T16:38:47.398Z,102311.16
2019-03-29T16:41:17.978Z,102307.30
2019-03-29T16:43:48.588Z,102300.31
2019-03-29T16:46:19.175Z,102299.60
2019-03-29T16:48:49.777Z,102296.60
2019-03-29T16:51:20.365Z,102291.36
2019-03-29T16:53:50.991Z,102293.99
2019-03-29T16:56:21.577Z,102285.04
2019-03-29T16:58:52.180Z,102291.25
2019-03-29T17:01:22.748Z,102290.14
2019-03-29T17:03:53.353Z,102293.46
2019-03-29T17:06:23.928Z,102287.44
2019-03-29T17:08:54.530Z,102287.44
2019-03-29T17:11:25.101Z,102283.53
2019-03-29T17:13:55.735Z,102286.91
2019-03-29T17:16:30.648Z,102283.20
2019-03-29T17:18:58.626Z,102282.46
2019-03-29T17:21:29.185Z,102280.87
2019-03-29T17:23:59.823Z,102282.75
2019-03-29T17:26:30.364Z,102280.87
2019-03-29T17:29:01.369Z,102278.74
2019-03-29T17:31:31.933Z,102273.38
2019-03-29T17:34:02.587Z,102284.69
2019-03-29T17:36:33.157Z,102280.63
2019-03-29T17:39:05.098Z,102278.08
2019-03-29T17:41:35.756Z,102280.20
2019-03-29T17:44:06.343Z,102280.31
2019-03-29T17:46:36.956Z,102284.88
2019-03-29T17:49:07.596Z,102281.88
2019-03-29T17:51:38.265Z,102283.05
2019-03-29T17:54:08.802Z,102287.47
2019-03-29T17:56:39.432Z,102287.50
2019-03-29T17:59:09.967Z,102287.77
2019-03-29T18:01:40.584Z,102286.44
2019-03-29T18:04:11.213Z,102294.56
2019-03-29T18:06:41.792Z,102288.60
2019-03-29T18:09:12.343Z,102291.99
2019-03-29T18:11:42.994Z,102293.50
2019-03-29T18:14:13.568Z,102293.48
2019-03-29T18:16:44.197Z,102288.53
2019-03-29T18:19:14.769Z,102292.20
2019-03-29T18:21:45.388Z,102295.63
2019-03-29T18:24:15.963Z,102294.34
2019-03-29T18:26:46.584Z,102296.28
2019-03-29T18:29:17.168Z,102294.64
2019-03-29T18:31:47.782Z,102291.20
2019-03-29T18:34:18.334Z,102290.36
2019-03-29T18:36:49.653Z,102293.45
2019-03-29T18:39:20.220Z,102297.94
2019-03-29T18:41:50.823Z,102296.97
2019-03-29T18:44:21.392Z,102294.64
2019-03-29T18:46:51.990Z,102297.22
2019-03-29T18:49:22.608Z,102293.81
2019-03-29T18:51:53.254Z,102287.03
2019-03-29T18:54:23.837Z,102290.66
2019-03-29T18:56:54.469Z,102296.22
2019-03-29T18:59:25.052Z,102295.16
2019-03-29T19:01:55.674Z,102296.43
2019-03-29T19:04:26.256Z,102295.55
2019-03-29T19:06:57.007Z,102292.91
2019-03-29T19:09:27.571Z,102293.55
2019-03-29T19:11:58.181Z,102294.27
2019-03-29T19:14:28.759Z,102294.91
2019-03-29T19:16:59.889Z,102296.88
2019-03-29T19:19:30.471Z,102295.40
2019-03-29T19:22:05.984Z,102288.23
2019-03-29T19:24:36.564Z,102287.50
2019-03-29T19:27:07.162Z,102285.28
2019-03-29T19:29:37.753Z,102290.38
2019-03-29T19:32:08.364Z,102285.16
2019-03-29T19:34:38.938Z,102291.90
2019-03-29T19:37:09.529Z,102289.70
2019-03-29T19:39:40.118Z,102286.96
2019-03-29T19:42:10.738Z,102283.42
2019-03-29T19:44:41.324Z,102285.60
2019-03-29T19:47:13.684Z,102292.82
2019-03-29T19:49:44.283Z,102293.91
2019-03-29T19:52:14.900Z,102294.33
2019-03-29T19:54:45.479Z,102284.83
2019-03-29T19:57:16.099Z,102287.66
2019-03-29T19:59:48.702Z,102287.00
2019-03-29T20:02:19.109Z,102283.88
2019-03-29T20:04:49.658Z,102284.96
2019-03-29T20:07:20.539Z,102294.03
2019-03-29T20:09:51.095Z,102286.07
2019-03-29T20:12:24.956Z,102292.50
2019-03-29T20:14:54.145Z,102290.46
2019-03-29T20:17:27.767Z,102289.64
2019-03-29T20:19:57.119Z,102288.82
2019-03-29T20:22:29.886Z,102281.61
2019-03-29T20:25:00.460Z,102282.02
2019-03-29T20:27:31.070Z,102277.95
2019-03-29T20:30:01.647Z,102275.81
2019-03-29T20:32:32.268Z,102276.61
2019-03-29T20:35:02.855Z,102272.77
2019-03-29T20:37:33.490Z,102275.43
2019-03-29T20:40:04.448Z,102272.88
2019-03-29T20:42:35.082Z,102270.25
2019-03-29T20:45:06.016Z,102265.45
2019-03-29T20:47:42.335Z,102270.55
2019-03-29T20:50:09.042Z,102272.73
2019-03-29T20:52:39.653Z,102270.07
2019-03-29T20:55:10.339Z,102261.70
2019-03-29T20:57:40.969Z,102259.47
2019-03-29T21:00:12.672Z,102252.20
2019-03-29T21:02:43.515Z,102263.36
2019-03-29T21:05:14.119Z,102258.41
2019-03-29T21:07:44.735Z,102261.50
2019-03-29T21:10:18.132Z,102259.41
2019-03-29T21:12:48.782Z,102259.41
2019-03-29T21:15:21.047Z,102263.00
2019-03-29T21:17:57.530Z,102249.65
2019-03-29T21:20:24.050Z,102261.22
2019-03-29T21:22:54.648Z,102259.81
2019-03-29T21:25:25.288Z,102259.78
2019-03-29T21:27:55.937Z,102259.28
2019-03-29T21:30:26.589Z,102267.53
2019-03-29T21:32:57.214Z,102257.37
2019-03-29T21:35:27.981Z,102251.84
2019-03-29T21:37:59.025Z,102248.53
2019-03-29T21:40:29.782Z,102245.30
2019-03-29T21:43:01.939Z,102249.88
2019-03-29T21:45:32.901Z,102243.30
2019-03-29T21:48:25.529Z,102240.87
2019-03-29T21:50:35.986Z,102239.61
2019-03-29T21:53:06.724Z,102252.09
2019-03-29T21:55:37.517Z,102245.61
2019-03-29T21:58:08.239Z,102246.59
2019-03-29T22:00:39.119Z,102243.57
2019-03-29T22:03:09.710Z,102244.14
2019-03-29T22:05:40.400Z,102241.34
2019-03-29T22:08:11.275Z,102244.52
2019-03-29T22:10:42.606Z,102245.12
2019-03-29T22:13:13.432Z,102240.99
2019-03-29T22:15:44.488Z,102240.55
2019-03-29T22:18:15.280Z,102239.27
2019-03-29T22:20:46.078Z,102236.86
2019-03-29T22:23:16.971Z,102236.31
2019-03-29T22:25:47.832Z,102236.05
2019-03-29T22:28:18.683Z,102230.82
2019-03-29T22:30:49.529Z,102226.20
2019-03-29T22:33:20.239Z,102217.38
2019-03-29T22:35:51.050Z,102215.56
2019-03-29T22:38:21.814Z,102218.30
2019-03-29T22:40:52.598Z,102212.87
2019-03-29T22:43:23.392Z,102207.38
2019-03-29T22:45:54.091Z,102209.30
2019-03-29T22:48:24.798Z,102208.88
2019-03-29T22:50:55.589Z,102207.80
2019-03-29T22:53:26.289Z,102208.59
2019-03-29T22:55:57.009Z,102205.91
2019-03-29T22:58:28.611Z,102201.08
2019-03-29T23:00:59.752Z,102201.33
2019-03-29T23:03:30.552Z,102201.88
2019-03-29T23:06:01.875Z,102193.64
2019-03-29T23:08:32.597Z,102196.66
2019-03-29T23:11:03.375Z,102193.97
2019-03-29T23:13:34.198Z,102194.64
2019-03-29T23:16:04.952Z,102195.20
2019-03-29T23:18:35.808Z,102199.45
2019-03-29T23:21:09.313Z,102196.41
2019-03-29T23:23:40.110Z,102194.11
2019-03-29T23:26:10.900Z,102206.73
2019-03-29T23:28:41.699Z,102202.80
2019-03-29T23:31:12.493Z,102203.53
2019-03-29T23:33:43.191Z,102198.95
2019-03-29T23:36:13.960Z,102197.50
2019-03-29T23:38:44.675Z,102190.98
2019-03-29T23:41:15.379Z,102181.66
2019-03-29T23:43:46.123Z,102183.45
2019-03-29T23:46:16.963Z,102185.02
2019-03-29T23:48:47.751Z,102177.47
2019-03-29T23:51:18.605Z,102179.40
2019-03-29T23:53:49.291Z,102171.65
2019-03-29T23:56:20.158Z,102161.61
2019-03-29T23:58:50.985Z,102163.34
